createdAt,value
2022-12-28T00:01:21.335Z,3.25
2022-12-28T00:03:52.454Z,3.03
2022-12-28T00:06:23.265Z,3.38
2022-12-28T00:08:53.731Z,3.17
2022-12-28T00:11:27.565Z,3.60
2022-12-28T00:13:59.942Z,3.70
2022-12-28T00:16:36.390Z,2.88
2022-12-28T00:19:06.385Z,3.33
2022-12-28T00:21:38.159Z,3.55
2022-12-28T00:24:07.166Z,3.67
2022-12-28T00:26:36.421Z,3.25
2022-12-28T00:29:06.997Z,3.70
2022-12-28T00:31:35.408Z,3.25
2022-12-28T00:34:03.832Z,3.20
2022-12-28T00:37:10.645Z,3.72
2022-12-28T00:39:22.112Z,4.28
2022-12-28T00:41:54.793Z,3.50
2022-12-28T00:44:25.376Z,4.05
2022-12-28T00:46:53.766Z,3.60
2022-12-28T00:49:26.474Z,3.65
2022-12-28T00:51:54.876Z,4.03
2022-12-28T00:54:25.759Z,3.85
2022-12-28T00:56:54.004Z,4.47
2022-12-28T00:59:22.213Z,3.70
2022-12-28T01:01:59.957Z,4.55
2022-12-28T01:04:33.058Z,3.80
2022-12-28T01:07:03.692Z,3.90
2022-12-28T01:09:34.035Z,4.28
2022-12-28T01:12:02.372Z,4.30
2022-12-28T01:14:30.632Z,3.55
2022-12-28T01:17:01.014Z,4.53
2022-12-28T01:19:29.285Z,4.75
2022-12-28T01:21:58.148Z,3.83
2022-12-28T01:24:26.552Z,3.78
2022-12-28T01:26:56.305Z,4.93
2022-12-28T01:29:24.572Z,4.05
2022-12-28T01:31:55.116Z,4.45
2022-12-28T01:34:25.718Z,4.65
2022-12-28T01:36:53.940Z,4.90
2022-12-28T01:39:24.520Z,4.57
2022-12-28T01:41:52.789Z,4.68
2022-12-28T01:44:48.321Z,5.18
2022-12-28T01:47:20.210Z,5.18
2022-12-28T01:49:53.621Z,4.47
2022-12-28T01:52:26.048Z,4.88
2022-12-28T01:54:55.863Z,4.47
2022-12-28T01:57:27.842Z,5.43
2022-12-28T02:00:01.210Z,4.35
2022-12-28T02:02:33.842Z,4.75
2022-12-28T02:05:02.745Z,4.43
2022-12-28T02:07:37.064Z,4.72
2022-12-28T02:10:43.931Z,4.95
2022-12-28T02:12:57.855Z,4.60
2022-12-28T02:15:28.754Z,4.45
2022-12-28T02:18:01.533Z,4.30
2022-12-28T02:20:34.273Z,3.67
2022-12-28T02:23:23.386Z,4.68
2022-12-28T02:26:12.084Z,4.18
2022-12-28T02:28:50.876Z,4.35
2022-12-28T02:31:21.273Z,4.38
2022-12-28T02:33:52.394Z,4.70
2022-12-28T02:36:25.859Z,4.00
2022-12-28T02:38:56.159Z,4.25
2022-12-28T02:41:27.136Z,4.35
2022-12-28T02:43:57.206Z,4.97
2022-12-28T02:47:00.483Z,4.60
2022-12-28T02:49:47.691Z,3.95
2022-12-28T02:52:20.103Z,4.03
2022-12-28T02:55:11.393Z,4.15
2022-12-28T02:57:54.010Z,5.00
2022-12-28T03:00:25.922Z,4.45
2022-12-28T03:03:11.925Z,4.50
2022-12-28T03:06:05.733Z,4.35
2022-12-28T03:08:38.651Z,4.22
2022-12-28T03:11:09.162Z,4.47
2022-12-28T03:13:45.819Z,4.57
2022-12-28T03:16:22.829Z,3.65
2022-12-28T03:19:12.514Z,3.83
2022-12-28T03:22:00.378Z,3.47
2022-12-28T03:24:48.481Z,3.88
2022-12-28T03:27:41.276Z,3.60
2022-12-28T03:30:30.975Z,3.80
2022-12-28T03:33:01.390Z,4.40
2022-12-28T03:35:36.121Z,4.53
2022-12-28T03:38:05.135Z,4.13
2022-12-28T03:40:36.059Z,3.80
2022-12-28T03:43:26.819Z,3.60
2022-12-28T03:45:56.961Z,3.22
2022-12-28T03:48:27.868Z,3.97
2022-12-28T03:50:57.436Z,3.65
2022-12-28T03:53:28.658Z,3.70
2022-12-28T03:56:07.218Z,3.45
2022-12-28T03:58:36.194Z,3.17
2022-12-28T04:01:05.571Z,3.45
2022-12-28T04:03:36.344Z,3.92
2022-12-28T04:06:04.792Z,3.10
2022-12-28T04:08:33.393Z,2.97
2022-12-28T04:11:02.256Z,3.67
2022-12-28T04:13:33.674Z,3.08
2022-12-28T04:16:09.363Z,3.55
2022-12-28T04:18:40.077Z,2.80
2022-12-28T04:21:09.161Z,2.78
2022-12-28T04:23:39.817Z,2.50
2022-12-28T04:26:19.523Z,2.75
2022-12-28T04:28:52.446Z,2.80
2022-12-28T04:31:40.459Z,3.28
2022-12-28T04:34:14.231Z,2.88
2022-12-28T04:36:48.948Z,2.70
2022-12-28T04:39:23.067Z,2.92
2022-12-28T04:41:51.797Z,2.60
2022-12-28T04:44:20.041Z,2.20
2022-12-28T04:46:50.392Z,1.95
2022-12-28T04:49:20.233Z,2.05
2022-12-28T04:51:48.780Z,2.30
2022-12-28T04:54:17.020Z,2.33
2022-12-28T04:56:45.382Z,2.20
2022-12-28T04:59:13.692Z,1.70
2022-12-28T05:01:44.231Z,2.00
2022-12-28T05:04:12.530Z,2.17
2022-12-28T05:06:42.106Z,1.92
2022-12-28T05:09:12.584Z,1.95
2022-12-28T05:11:45.388Z,2.22
2022-12-28T05:14:15.838Z,1.95
2022-12-28T05:16:44.149Z,2.03
2022-12-28T05:19:12.401Z,2.63
2022-12-28T05:21:42.900Z,1.58
2022-12-28T05:24:11.262Z,1.98
2022-12-28T05:26:39.567Z,2.13
2022-12-28T05:29:08.159Z,1.77
2022-12-28T05:31:36.757Z,2.13
2022-12-28T05:34:07.424Z,2.25
2022-12-28T05:36:39.680Z,2.03
2022-12-28T05:39:09.548Z,1.90
2022-12-28T05:41:37.827Z,1.60
2022-12-28T05:44:06.243Z,1.90
2022-12-28T05:46:37.579Z,1.88
2022-12-28T05:49:05.876Z,2.05
2022-12-28T05:51:39.970Z,2.17
2022-12-28T05:54:13.341Z,1.90
2022-12-28T05:56:41.791Z,1.80
2022-12-28T05:59:10.323Z,1.90
2022-12-28T06:01:39.849Z,1.83
2022-12-28T06:04:08.640Z,1.70
2022-12-28T06:06:39.433Z,2.10
2022-12-28T06:09:07.645Z,1.73
2022-12-28T06:11:37.306Z,1.75
2022-12-28T06:14:05.963Z,1.65
2022-12-28T06:16:35.445Z,1.42
2022-12-28T06:19:06.269Z,1.88
2022-12-28T06:21:35.113Z,1.80
2022-12-28T06:24:03.970Z,1.38
2022-12-28T06:26:35.305Z,1.88
2022-12-28T06:29:05.349Z,1.70
2022-12-28T06:31:34.819Z,1.67
2022-12-28T06:34:06.101Z,1.65
2022-12-28T06:36:42.475Z,2.25
2022-12-28T06:39:11.625Z,1.63
2022-12-28T06:41:40.557Z,1.90
2022-12-28T06:44:10.699Z,2.15
2022-12-28T06:46:38.989Z,1.70
2022-12-28T06:49:09.748Z,1.60
2022-12-28T06:51:41.400Z,1.75
2022-12-28T06:54:10.124Z,1.80
2022-12-28T06:56:38.373Z,1.70
2022-12-28T06:59:08.926Z,2.33
2022-12-28T07:01:39.392Z,2.10
2022-12-28T07:04:08.984Z,1.48
2022-12-28T07:06:47.688Z,1.50
2022-12-28T07:09:16.893Z,1.60
2022-12-28T07:11:52.498Z,1.38
2022-12-28T07:14:20.736Z,1.55
2022-12-28T07:16:50.917Z,1.70
2022-12-28T07:19:19.573Z,1.60
2022-12-28T07:21:47.828Z,1.58
2022-12-28T07:24:16.290Z,1.60
2022-12-28T07:26:47.568Z,1.63
2022-12-28T07:29:15.818Z,1.60
2022-12-28T07:31:46.603Z,1.67
2022-12-28T07:34:18.780Z,1.77
2022-12-28T07:36:47.516Z,1.90
2022-12-28T07:39:18.251Z,1.73
2022-12-28T07:41:48.478Z,1.77
2022-12-28T07:44:25.592Z,1.60
2022-12-28T07:46:57.760Z,1.98
2022-12-28T07:49:27.393Z,1.70
2022-12-28T07:51:58.003Z,1.52
2022-12-28T07:54:28.482Z,1.75
2022-12-28T07:56:59.021Z,1.98
2022-12-28T07:59:30.967Z,1.85
2022-12-28T08:02:00.131Z,1.60
2022-12-28T08:04:30.425Z,1.23
2022-12-28T08:07:01.776Z,1.80
2022-12-28T08:09:30.220Z,1.60
2022-12-28T08:12:07.548Z,1.25
2022-12-28T08:14:38.310Z,1.23
2022-12-28T08:17:09.194Z,1.27
2022-12-28T08:19:45.612Z,1.40
2022-12-28T08:22:17.922Z,1.60
2022-12-28T08:24:55.342Z,1.77
2022-12-28T08:27:23.773Z,1.20
2022-12-28T08:29:51.966Z,1.48
2022-12-28T08:32:20.332Z,2.03
2022-12-28T08:34:52.021Z,1.92
2022-12-28T08:37:39.819Z,2.22
2022-12-28T08:40:10.547Z,2.10
2022-12-28T08:42:38.832Z,1.98
2022-12-28T08:45:07.753Z,2.03
2022-12-28T08:47:36.030Z,1.98
2022-12-28T08:50:19.532Z,1.85
2022-12-28T08:52:50.955Z,1.95
2022-12-28T08:55:19.449Z,2.47
2022-12-28T08:57:51.777Z,1.70
2022-12-28T09:00:22.635Z,1.80
2022-12-28T09:02:50.966Z,1.88
2022-12-28T09:05:28.660Z,1.70
2022-12-28T09:07:59.728Z,1.40
2022-12-28T09:10:30.947Z,2.20
2022-12-28T09:13:01.656Z,2.15
2022-12-28T09:15:29.876Z,2.45
2022-12-28T09:18:00.620Z,2.53
2022-12-28T09:20:32.445Z,2.00
2022-12-28T09:23:00.768Z,2.88
2022-12-28T09:25:29.005Z,1.80
2022-12-28T09:27:59.498Z,2.88
2022-12-28T09:30:27.969Z,2.15
2022-12-28T09:33:14.429Z,2.20
2022-12-28T09:35:46.505Z,1.77
2022-12-28T09:38:14.808Z,2.05
2022-12-28T09:40:47.752Z,1.88
2022-12-28T09:43:17.269Z,2.03
2022-12-28T09:45:47.754Z,2.42
2022-12-28T09:48:18.742Z,2.17
2022-12-28T09:50:55.445Z,2.10
2022-12-28T09:53:29.218Z,1.75
2022-12-28T09:56:00.392Z,2.05
2022-12-28T09:58:29.182Z,1.42
2022-12-28T10:00:58.290Z,1.85
2022-12-28T10:03:28.142Z,1.80
2022-12-28T10:06:03.097Z,1.70
2022-12-28T10:08:31.745Z,1.70
2022-12-28T10:11:06.510Z,1.95
2022-12-28T10:13:54.163Z,1.40
2022-12-28T10:16:29.418Z,1.85
2022-12-28T10:18:58.045Z,1.75
2022-12-28T10:21:32.730Z,1.30
2022-12-28T10:24:30.829Z,1.60
2022-12-28T10:26:56.025Z,2.00
2022-12-28T10:29:25.238Z,1.40
2022-12-28T10:32:00.928Z,1.42
2022-12-28T10:34:33.908Z,1.70
2022-12-28T10:37:14.510Z,1.75
2022-12-28T10:39:52.251Z,2.03
2022-12-28T10:42:23.056Z,2.10
2022-12-28T10:44:53.376Z,2.65
2022-12-28T10:47:31.967Z,3.42
2022-12-28T10:53:02.444Z,2.15
2022-12-28T10:55:31.999Z,2.10
2022-12-28T10:58:29.545Z,2.45
2022-12-28T11:01:00.118Z,2.17
2022-12-28T11:03:29.759Z,2.08
2022-12-28T11:06:11.017Z,1.90
2022-12-28T11:08:41.337Z,2.28
2022-12-28T11:11:18.495Z,1.77
2022-12-28T11:13:47.297Z,1.50
2022-12-28T11:16:18.929Z,2.55
2022-12-28T11:18:47.470Z,1.73
2022-12-28T11:21:18.706Z,1.80
2022-12-28T11:23:50.771Z,1.30
2022-12-28T11:26:20.012Z,1.20
2022-12-28T11:28:50.362Z,1.60
2022-12-28T11:31:21.824Z,1.33
2022-12-28T11:33:53.288Z,1.95
2022-12-28T11:36:22.668Z,1.40
2022-12-28T11:38:54.377Z,1.63
2022-12-28T11:42:10.320Z,0.98
2022-12-28T11:44:52.527Z,1.55
2022-12-28T11:47:31.075Z,1.50
2022-12-28T11:50:19.473Z,1.85
2022-12-28T11:52:50.911Z,1.27
2022-12-28T11:55:42.181Z,1.65
2022-12-28T11:58:31.261Z,1.17
2022-12-28T12:01:03.326Z,1.10
2022-12-28T12:03:55.705Z,1.17
2022-12-28T12:06:40.035Z,1.05
2022-12-28T12:09:28.048Z,1.30
2022-12-28T12:11:59.354Z,1.30
2022-12-28T12:14:32.284Z,1.67
2022-12-28T12:17:04.056Z,1.30
2022-12-28T12:19:38.166Z,1.40
2022-12-28T12:22:14.277Z,2.05
2022-12-28T12:24:47.756Z,0.98
2022-12-28T12:27:22.560Z,1.10
2022-12-28T12:29:55.654Z,1.38
2022-12-28T12:32:34.399Z,1.27
2022-12-28T12:35:04.603Z,1.30
2022-12-28T12:37:48.704Z,1.38
2022-12-28T12:40:28.474Z,1.20
2022-12-28T12:43:16.141Z,1.23
2022-12-28T12:45:53.005Z,1.40
2022-12-28T12:48:40.165Z,1.83
2022-12-28T12:51:16.892Z,2.42
2022-12-28T12:54:00.248Z,1.92
2022-12-28T12:56:41.557Z,1.80
2022-12-28T12:59:25.438Z,1.90
2022-12-28T13:01:58.141Z,1.90
2022-12-28T13:04:31.955Z,1.88
2022-12-28T13:07:05.999Z,1.60
2022-12-28T13:09:45.457Z,1.85
2022-12-28T13:12:16.448Z,1.92
2022-12-28T13:14:55.157Z,1.98
2022-12-28T13:17:26.901Z,2.03
2022-12-28T13:20:15.846Z,1.83
2022-12-28T13:22:47.620Z,1.30
2022-12-28T13:25:24.629Z,1.85
2022-12-28T13:27:52.963Z,1.50
2022-12-28T13:30:28.146Z,1.70
2022-12-28T13:32:59.728Z,1.67
2022-12-28T13:35:29.153Z,1.67
2022-12-28T13:38:04.843Z,1.63
2022-12-28T13:40:36.979Z,1.88
2022-12-28T13:43:27.223Z,1.60
2022-12-28T13:45:59.038Z,1.45
2022-12-28T13:48:28.201Z,1.70
2022-12-28T13:50:58.520Z,1.83
2022-12-28T13:53:30.497Z,1.25
2022-12-28T13:56:00.374Z,1.70
2022-12-28T13:58:34.431Z,1.58
2022-12-28T14:01:06.447Z,1.50
2022-12-28T14:03:39.889Z,2.15
2022-12-28T14:06:15.102Z,1.70
2022-12-28T14:08:43.549Z,1.48
2022-12-28T14:11:12.340Z,1.88
2022-12-28T14:13:41.157Z,1.90
2022-12-28T14:16:13.476Z,1.70
2022-12-28T14:18:42.118Z,1.63
2022-12-28T14:21:10.343Z,1.67
2022-12-28T14:23:43.619Z,1.85
2022-12-28T14:26:23.655Z,2.60
2022-12-28T14:28:52.887Z,2.17
2022-12-28T14:31:24.227Z,1.65
2022-12-28T14:33:53.512Z,1.60
2022-12-28T14:36:22.858Z,2.15
2022-12-28T14:38:51.772Z,1.60
2022-12-28T14:41:21.576Z,1.92
2022-12-28T14:43:57.721Z,1.55
2022-12-28T14:46:40.020Z,1.95
2022-12-28T14:49:27.562Z,1.40
2022-12-28T14:51:58.086Z,1.77
2022-12-28T14:54:26.915Z,2.20
2022-12-28T14:56:57.209Z,1.35
2022-12-28T14:59:27.987Z,1.73
2022-12-28T15:02:00.074Z,2.03
2022-12-28T15:04:37.632Z,1.52
2022-12-28T15:07:06.788Z,1.40
2022-12-28T15:09:35.092Z,1.55
2022-12-28T15:12:14.663Z,1.20
2022-12-28T15:14:43.065Z,1.50
2022-12-28T15:17:12.673Z,1.48
2022-12-28T15:19:41.229Z,1.80
2022-12-28T15:22:09.858Z,1.30
2022-12-28T15:24:38.860Z,1.88
2022-12-28T15:27:09.398Z,1.58
2022-12-28T15:30:04.227Z,1.45
2022-12-28T15:32:29.895Z,1.02
2022-12-28T15:34:58.682Z,1.30
2022-12-28T15:37:27.066Z,1.80
2022-12-28T15:39:55.306Z,1.42
2022-12-28T15:42:23.703Z,1.20
2022-12-28T15:44:56.406Z,1.42
2022-12-28T15:47:27.056Z,1.00
2022-12-28T15:49:59.240Z,1.23
2022-12-28T15:52:32.073Z,1.55
2022-12-28T15:55:00.302Z,1.50
2022-12-28T15:57:29.031Z,1.00
2022-12-28T15:59:59.817Z,1.27
2022-12-28T16:02:28.211Z,1.50
2022-12-28T16:04:58.132Z,1.60
2022-12-28T16:07:26.312Z,1.13
2022-12-28T16:09:59.527Z,1.48
2022-12-28T16:12:27.976Z,1.42
2022-12-28T16:14:56.318Z,1.45
2022-12-28T16:17:29.139Z,1.63
2022-12-28T16:19:58.836Z,1.98
2022-12-28T16:22:27.238Z,1.50
2022-12-28T16:24:55.424Z,1.48
2022-12-28T16:27:25.204Z,1.50
2022-12-28T16:29:58.591Z,1.45
2022-12-28T16:32:29.673Z,1.70
2022-12-28T16:35:04.057Z,1.40
2022-12-28T16:37:34.789Z,1.60
2022-12-28T16:40:03.087Z,1.77
2022-12-28T16:42:32.171Z,1.33
2022-12-28T16:45:09.304Z,1.90
2022-12-28T16:47:44.641Z,1.95
2022-12-28T16:50:15.045Z,1.55
2022-12-28T16:52:47.830Z,1.70
2022-12-28T16:55:16.239Z,1.98
2022-12-28T16:57:52.628Z,1.60
2022-12-28T17:00:21.033Z,1.40
2022-12-28T17:02:49.773Z,1.50
2022-12-28T17:05:19.836Z,1.25
2022-12-28T17:07:48.127Z,1.75
2022-12-28T17:10:17.775Z,1.70
2022-12-28T17:12:49.158Z,2.17
2022-12-28T17:15:19.877Z,1.23
2022-12-28T17:17:50.422Z,2.17
2022-12-28T17:20:20.514Z,1.70
2022-12-28T17:22:48.968Z,1.75
2022-12-28T17:25:18.407Z,1.90
2022-12-28T17:27:52.723Z,2.05
2022-12-28T17:30:23.339Z,1.60
2022-12-28T17:32:51.623Z,1.80
2022-12-28T17:35:21.271Z,2.22
2022-12-28T17:37:51.675Z,2.10
2022-12-28T17:40:23.326Z,2.58
2022-12-28T17:42:51.635Z,2.00
2022-12-28T17:45:22.121Z,1.92
2022-12-28T17:47:53.258Z,2.40
2022-12-28T17:50:23.372Z,2.13
2022-12-28T17:52:51.673Z,2.25
2022-12-28T17:55:22.768Z,2.28
2022-12-28T17:57:50.938Z,2.10
2022-12-28T18:00:20.668Z,2.30
2022-12-28T18:02:49.086Z,1.95
2022-12-28T18:05:17.693Z,2.22
2022-12-28T18:07:49.729Z,1.90
2022-12-28T18:10:18.606Z,2.30
2022-12-28T18:12:46.967Z,2.40
2022-12-28T18:15:20.409Z,1.90
2022-12-28T18:17:48.815Z,2.28
2022-12-28T18:20:17.089Z,2.30
2022-12-28T18:22:51.862Z,2.40
2022-12-28T18:25:20.670Z,2.30
2022-12-28T18:27:51.036Z,2.20
2022-12-28T18:30:19.803Z,2.42
2022-12-28T18:32:50.310Z,2.67
2022-12-28T18:35:23.754Z,2.28
2022-12-28T18:37:55.680Z,2.55
2022-12-28T18:40:24.204Z,2.58
2022-12-28T18:42:58.264Z,2.47
2022-12-28T18:45:26.753Z,2.30
2022-12-28T18:47:55.063Z,2.60
2022-12-28T18:50:23.290Z,1.95
2022-12-28T18:52:53.008Z,2.42
2022-12-28T18:55:22.554Z,2.47
2022-12-28T18:57:53.104Z,2.35
2022-12-28T19:00:21.392Z,2.17
2022-12-28T19:02:52.301Z,1.80
2022-12-28T19:05:20.931Z,2.20
2022-12-28T19:07:49.725Z,2.90
2022-12-28T19:10:21.216Z,2.25
2022-12-28T19:12:49.786Z,2.50
2022-12-28T19:15:18.744Z,2.47
2022-12-28T19:17:46.958Z,2.50
2022-12-28T19:20:17.741Z,2.20
2022-12-28T19:22:46.147Z,2.45
2022-12-28T19:25:14.378Z,3.22
2022-12-28T19:27:44.267Z,2.55
2022-12-28T19:30:13.091Z,2.08
2022-12-28T19:32:43.855Z,2.78
2022-12-28T19:35:15.686Z,2.30
2022-12-28T19:37:44.374Z,2.50
2022-12-28T19:40:12.967Z,2.72
2022-12-28T19:42:43.323Z,3.42
2022-12-28T19:45:13.294Z,2.85
2022-12-28T19:47:41.568Z,2.65
2022-12-28T19:50:10.540Z,3.22
2022-12-28T19:52:38.943Z,3.10
2022-12-28T19:55:13.925Z,2.58
2022-12-28T19:57:46.533Z,3.75
2022-12-28T20:00:21.252Z,2.67
2022-12-28T20:02:50.000Z,2.85
2022-12-28T20:05:20.773Z,3.05
2022-12-28T20:07:49.079Z,3.42
2022-12-28T20:10:17.517Z,2.80
2022-12-28T20:12:48.947Z,2.45
2022-12-28T20:15:20.801Z,2.95
2022-12-28T20:17:51.264Z,3.13
2022-12-28T20:20:25.202Z,2.72
2022-12-28T20:22:57.644Z,2.80
2022-12-28T20:25:25.935Z,2.63
2022-12-28T20:27:57.005Z,2.58
2022-12-28T20:30:26.756Z,2.53
2022-12-28T20:32:57.198Z,3.05
2022-12-28T20:35:27.917Z,3.03
2022-12-28T20:37:58.207Z,2.80
2022-12-28T20:40:29.925Z,2.33
2022-12-28T20:43:17.839Z,2.08
2022-12-28T20:45:53.888Z,2.40
2022-12-28T20:48:25.865Z,2.45
2022-12-28T20:50:59.713Z,1.90
2022-12-28T20:53:30.680Z,2.33
2022-12-28T20:56:11.088Z,2.08
2022-12-28T20:58:39.563Z,2.97
2022-12-28T21:01:10.312Z,2.95
2022-12-28T21:03:43.008Z,2.13
2022-12-28T21:06:13.734Z,2.38
2022-12-28T21:08:42.366Z,2.08
2022-12-28T21:11:18.167Z,2.08
2022-12-28T21:13:52.215Z,2.13
2022-12-28T21:16:26.944Z,2.25
2022-12-28T21:19:00.330Z,2.38
2022-12-28T21:21:28.632Z,2.65
2022-12-28T21:23:59.407Z,2.53
2022-12-28T21:26:27.757Z,2.30
2022-12-28T21:28:56.070Z,2.58
2022-12-28T21:31:25.767Z,2.90
2022-12-28T21:33:56.326Z,2.83
2022-12-28T21:36:24.734Z,2.78
2022-12-28T21:38:57.613Z,2.50
2022-12-28T21:41:48.705Z,2.33
2022-12-28T21:44:19.211Z,2.50
2022-12-28T21:46:52.616Z,2.60
2022-12-28T21:49:20.949Z,3.00
2022-12-28T21:51:51.517Z,2.53
2022-12-28T21:54:25.437Z,3.00
2022-12-28T21:56:54.768Z,2.55
2022-12-28T21:59:26.491Z,2.60
2022-12-28T22:02:18.836Z,2.67
2022-12-28T22:05:07.026Z,2.55
2022-12-28T22:07:38.401Z,2.83
2022-12-28T22:10:24.897Z,2.80
2022-12-28T22:12:53.143Z,2.38
2022-12-28T22:15:40.107Z,3.50
2022-12-28T22:18:52.794Z,3.00
2022-12-28T22:21:09.777Z,2.65
2022-12-28T22:23:38.014Z,3.28
2022-12-28T22:26:06.315Z,2.63
2022-12-28T22:28:34.526Z,2.28
2022-12-28T22:31:07.513Z,2.40
2022-12-28T22:33:37.196Z,1.90
2022-12-28T22:36:12.311Z,2.63
2022-12-28T22:38:40.619Z,2.60
2022-12-28T22:41:11.321Z,2.00
2022-12-28T22:43:39.698Z,2.22
2022-12-28T22:46:09.133Z,2.17
2022-12-28T22:48:41.314Z,2.60
2022-12-28T22:51:10.481Z,2.17
2022-12-28T22:53:39.256Z,2.13
2022-12-28T22:56:08.947Z,2.53
2022-12-28T22:58:37.490Z,1.90
2022-12-28T23:01:11.079Z,1.92
2022-12-28T23:03:41.605Z,1.92
2022-12-28T23:06:12.973Z,1.95
2022-12-28T23:08:47.762Z,1.88
2022-12-28T23:11:37.731Z,2.00
2022-12-28T23:14:24.981Z,1.90
2022-12-28T23:16:53.640Z,2.20
2022-12-28T23:19:41.538Z,1.95
2022-12-28T23:22:37.942Z,1.85
2022-12-28T23:25:23.855Z,1.48
2022-12-28T23:27:52.375Z,2.00
2022-12-28T23:30:21.718Z,1.77
2022-12-28T23:32:55.589Z,1.50
2022-12-28T23:35:26.203Z,1.30
2022-12-28T23:37:54.801Z,1.50
2022-12-28T23:40:25.349Z,1.40
2022-12-28T23:42:54.021Z,1.63
2022-12-28T23:45:22.600Z,1.55
2022-12-28T23:47:53.465Z,1.00
2022-12-28T23:50:26.542Z,1.00
2022-12-28T23:52:56.494Z,1.10
2022-12-28T23:55:27.275Z,1.10
2022-12-28T23:57:55.517Z,0.88
